Time;durP1;ratioP1;P1;durP2;ratioP2;P2;SDS_P1;SDS_P2;PMS_P1;PMS_P2;Temp;Humidity;BMP_temperature;BMP_pressure;BME280_temperature;BME280_humidity;BME280_pressure;Samples;Min_cycle;Max_cycle;Signal;HPM_P1;HPM_P2
2023/03/02 00:02:20;;;;;;;;;;;;;;;;;;;;;
2023/03/02 00:05:06;;;;;;;;;51.50;44.00;;;;;6.26;44.32;101552.03;4864895;29;72785;-72
2023/03/02 00:07:36;;;;;;;;;54.75;42.00;;;;;6.16;44.44;101544.13;4855052;29;46279;-72
2023/03/02 00:10:25;;;;;;;;;43.00;39.50;;;;;6.53;44.32;101611.22;4865805;29;45864;-72
2023/03/02 00:13:06;;;;;;;;;48.75;41.50;;;;;6.50;44.53;101613.91;4880365;29;45497;-72
2023/03/02 00:15:35;;;;;;;;;52.50;42.00;;;;;6.43;44.45;101598.88;4857870;29;45487;-72
2023/03/02 00:18:27;;;;;;;;;48.25;41.50;;;;;6.38;44.68;101590.94;4865596;29;45711;-72
2023/03/02 00:21:00;;;;;;;;;51.00;41.50;;;;;6.44;44.84;101601.53;4864232;29;45332;-72
2023/03/02 00:23:40;;;;;;;;;50.00;39.50;;;;;6.11;44.83;101544.09;4865722;29;45402;-72
2023/03/02 00:26:19;;;;;;;;;47.75;40.00;;;;;6.27;44.51;101577.69;4865556;29;45424;-72
2023/03/02 00:29:03;;;;;;;;;49.50;42.00;;;;;6.38;45.11;101584.72;4865591;29;45580;-72
2023/03/02 00:31:45;;;;;;;;;56.00;42.75;;;;;6.39;44.90;101591.81;4865434;29;45344;-72
2023/03/02 00:34:14;;;;;;;;;56.25;44.00;;;;;6.56;44.53;101620.97;4872111;29;45460;-72
2023/03/02 00:36:57;;;;;;;;;45.50;39.50;;;;;6.39;45.11;101599.78;4865426;29;45590;-72
2023/03/02 00:39:32;;;;;;;;;44.00;38.75;;;;;6.30;44.72;101582.97;4879723;29;47301;-72
2023/03/02 00:42:08;;;;;;;;;47.50;39.50;;;;;6.47;44.61;101613.91;4871010;29;45771;-72
2023/03/02 00:44:44;;;;;;;;;;;;;;;;;;;;;
2023/03/02 00:47:15;;;;;;;;;54.25;42.00;;;;;6.28;44.99;101573.25;4883090;29;71768;-72
2023/03/02 00:49:57;;;;;;;;;;;;;;;;;;;;;
2023/03/02 00:52:28;;;;;;;;;46.00;37.25;;;;;6.50;45.02;101629.81;4879675;29;72060;-72
2023/03/02 00:55:13;;;;;;;;;;;;;;;;;;;;;
2023/03/02 00:57:52;;;;;;;;;;;;;;;;;;;;;
2023/03/02 01:00:29;;;;;;;;;;;;;;;;;;;;;
2023/03/02 01:03:02;;;;;;;;;45.75;40.50;;;;;5.86;44.68;101533.47;4882699;29;71939;-72
2023/03/02 01:05:46;;;;;;;;;51.75;41.50;;;;;6.40;44.65;101628.94;4866855;29;45437;-72
2023/03/02 01:08:31;;;;;;;;;38.50;37.50;;;;;6.31;44.96;101618.34;4883641;29;45691;-72
2023/03/02 01:11:00;;;;;;;;;44.25;39.00;;;;;6.21;44.75;101613.91;4856845;29;47739;-72
2023/03/02 01:13:38;;;;;;;;;41.50;33.75;;;;;6.09;44.83;101588.31;4883646;29;45515;-72
2023/03/02 01:16:26;;;;;;;;;;;;;;;;;;;;;
2023/03/02 01:18:54;;;;;;;;;52.00;41.50;;;;;6.11;45.44;101594.47;4870257;29;73126;-72
2023/03/02 01:21:25;;;;;;;;;36.00;29.00;;;;;6.14;45.48;101589.19;4860546;29;48550;-72
2023/03/02 01:23:53;;;;;;;;;47.75;39.75;;;;;5.91;45.50;101547.66;4883816;29;45886;-72
2023/03/02 01:26:21;;;;;;;;;46.25;39.75;;;;;6.02;45.22;101566.22;4883649;29;45585;-72
2023/03/02 01:28:58;;;;;;;;;;;;;;;;;;;;;
2023/03/02 01:31:26;;;;;;;;;54.00;42.50;;;;;6.04;44.90;101571.50;4880679;29;74337;-72
2023/03/02 01:33:56;;;;;;;;;41.00;33.25;;;;;5.91;45.33;101562.63;4860508;29;45485;-72
2023/03/02 01:36:30;;;;;;;;;51.75;41.00;;;;;5.79;45.14;101536.16;4866502;29;45374;-72
2023/03/02 01:39:08;;;;;;;;;52.75;39.00;;;;;5.99;45.64;101565.34;4883559;29;45525;-72
2023/03/02 01:41:49;;;;;;;;;;;;;;;;;;;;;
2023/03/02 01:44:52;;;;;;;;;47.50;38.50;;;;;6.19;45.25;101605.97;4879260;29;72969;-72
2023/03/02 01:47:21;;;;;;;;;45.00;36.75;;;;;6.15;45.16;101605.97;4883405;29;45472;-72
2023/03/02 01:50:01;;;;;;;;;37.75;35.75;;;;;5.83;45.30;101553.81;4860904;29;45341;-72
2023/03/02 01:52:42;;;;;;;;;;;;;;;;;;;;;
2023/03/02 01:55:24;;;;;;;;;53.00;42.25;;;;;5.80;45.53;101551.16;4882453;29;72702;-72
2023/03/02 01:57:58;;;;;;;;;52.75;41.50;;;;;5.94;45.91;101574.13;4871528;29;45454;-72
2023/03/02 02:00:38;;;;;;;;;;;;;;;;;;;;;
2023/03/02 02:03:19;;;;;;;;;46.75;40.50;;;;;5.75;45.58;101545.88;4882015;29;75177;-72
2023/03/02 02:05:56;;;;;;;;;55.00;40.50;;;;;6.02;45.83;101586.53;4882844;29;45906;-72
2023/03/02 02:08:24;;;;;;;;;48.25;41.25;;;;;6.06;45.67;101583.00;4866030;29;45400;-72
2023/03/02 02:10:53;;;;;;;;;30.25;26.50;;;;;6.03;45.47;101577.69;4882933;29;45342;-72
2023/03/02 02:13:22;;;;;;;;;50.75;40.00;;;;;5.80;45.62;101554.72;4881005;29;48077;-72
2023/03/02 02:15:50;;;;;;;;;41.50;37.25;;;;;5.81;45.52;101558.22;4882916;29;45782;-72
2023/03/02 02:18:20;;;;;;;;;44.00;38.25;;;;;5.91;46.25;101570.59;4882215;29;45457;-72
2023/03/02 02:20:51;;;;;;;;;45.75;38.25;;;;;5.77;45.61;101554.69;4877058;29;45465;-72
2023/03/02 02:23:50;;;;;;;;;46.25;39.50;;;;;6.01;45.78;101590.94;4882775;29;46382;-72
2023/03/02 02:26:25;;;;;;;;;46.00;40.00;;;;;5.93;45.22;101587.38;4882782;29;45468;-72
2023/03/02 02:29:06;;;;;;;;;;;;;;;;;;;;;
2023/03/02 02:31:52;;;;;;;;;46.00;33.25;;;;;5.86;45.63;101586.47;4883563;29;71912;-72
2023/03/02 02:34:28;;;;;;;;;42.50;37.50;;;;;5.78;46.30;101571.47;4881775;29;45504;-72
2023/03/02 02:36:58;;;;;;;;;55.75;42.50;;;;;5.48;46.14;101531.72;4886144;29;45497;-72
2023/03/02 02:39:38;;;;;;;;;47.75;39.75;;;;;5.55;45.85;101544.09;4886136;29;45399;-72
2023/03/02 02:42:10;;;;;;;;;53.50;43.25;;;;;5.56;45.49;101543.22;4885905;29;45585;-72
2023/03/02 02:44:35;;;;;;;;;46.25;40.75;;;;;5.41;46.55;101521.97;4868822;29;48303;-72
2023/03/02 02:47:11;;;;;;;;;;;;;;;;;;;;;
2023/03/02 02:49:39;;;;;;;;;43.50;39.50;;;;;5.09;46.45;101501.63;4876676;29;68944;-72
2023/03/02 02:52:16;;;;;;;;;;;;;;;;;;;;;
2023/03/02 02:54:49;;;;;;;;;59.00;43.00;;;;;5.24;46.14;101526.38;4884906;29;73975;-72
2023/03/02 02:57:17;;;;;;;;;49.50;39.75;;;;;5.20;46.35;101518.44;4868594;29;45408;-72
2023/03/02 02:59:48;;;;;;;;;50.25;40.50;;;;;5.22;46.93;101517.56;4886013;29;45488;-72
2023/03/02 03:02:21;;;;;;;;;51.25;41.00;;;;;5.26;46.88;101519.31;4885540;29;45657;-72
2023/03/02 03:04:56;;;;;;;;;40.50;38.75;;;;;5.43;46.79;101544.06;4879059;29;45594;-72
2023/03/02 03:07:25;;;;;;;;;45.25;39.00;;;;;5.07;46.10;101494.59;4885420;29;45843;-72
2023/03/02 03:10:02;;;;;;;;;47.75;38.00;;;;;5.13;46.77;101508.72;4868596;29;45519;-72
2023/03/02 03:12:30;;;;;;;;;42.75;39.00;;;;;5.35;45.99;101552.00;4885727;29;45342;-72
2023/03/02 03:14:57;;;;;;;;;52.75;41.75;;;;;5.18;46.56;101522.84;4866719;29;46724;-72
2023/03/02 03:17:35;;;;;;;;;;;;;;;;;;;;;
2023/03/02 03:20:10;;;;;;;;;43.25;40.00;;;;;5.24;46.88;101542.25;4884476;29;69385;-72
2023/03/02 03:22:40;;;;;;;;;50.25;40.50;;;;;5.00;46.65;101504.28;4885328;29;45803;-72
2023/03/02 03:25:08;;;;;;;;;49.00;41.25;;;;;5.08;47.17;101514.84;4885151;29;46962;-72
2023/03/02 03:27:33;;;;;;;;;44.00;40.00;;;;;4.90;46.44;101513.94;4884098;29;45413;-72
2023/03/02 03:30:01;;;;;;;;;49.00;41.25;;;;;5.14;47.58;101541.34;4868317;29;45506;-72
2023/03/02 03:32:26;;;;;;;;;58.50;42.75;;;;;5.31;46.99;101570.50;4868235;29;45571;-72
2023/03/02 03:34:55;;;;;;;;;44.75;37.50;;;;;5.06;47.02;101529.84;4882828;29;45260;-72
2023/03/02 03:37:30;;;;;;;;;45.00;39.25;;;;;4.96;47.12;101511.31;4868396;29;45412;-72
2023/03/02 03:39:57;;;;;;;;;47.50;42.25;;;;;5.28;47.46;101557.25;4885227;29;45392;-72
2023/03/02 03:42:23;;;;;;;;;47.25;41.50;;;;;5.04;47.26;101521.91;4884409;29;45755;-72
2023/03/02 03:44:48;;;;;;;;;40.50;36.50;;;;;5.18;47.13;101549.31;4882807;29;47728;-72
2023/03/02 03:47:14;;;;;;;;;53.50;39.75;;;;;5.11;46.70;101523.72;4884794;29;45488;-72
2023/03/02 03:49:49;;;;;;;;;54.25;42.50;;;;;4.84;47.09;101471.59;4864538;29;45472;-72
2023/03/02 03:52:17;;;;;;;;;41.25;39.00;;;;;5.10;46.99;101514.00;4863219;29;45391;-72
2023/03/02 03:54:42;;;;;;;;;55.00;44.25;;;;;5.15;47.04;101521.97;4883755;29;48365;-72
2023/03/02 03:57:10;;;;;;;;;46.75;39.00;;;;;5.07;47.14;101510.47;4883947;29;45270;-72
2023/03/02 03:59:36;;;;;;;;;56.75;44.00;;;;;5.04;47.64;101521.91;4885088;29;45726;-72
2023/03/02 04:02:02;;;;;;;;;47.00;39.25;;;;;4.92;47.49;101498.94;4883785;29;45544;-72
2023/03/02 04:04:33;;;;;;;;;46.50;37.75;;;;;5.01;47.13;101509.56;4884443;29;46123;-72
2023/03/02 04:07:02;;;;;;;;;50.25;44.00;;;;;4.91;47.01;101506.88;4867685;29;45338;-72
2023/03/02 04:09:41;;;;;;;;;;;;;;;;;;;;;
2023/03/02 04:12:07;;;;;;;;;37.25;33.75;;;;;5.25;47.78;101565.22;4883197;29;72650;-72
2023/03/02 04:14:33;;;;;;;;;51.25;42.00;;;;;5.04;47.42;101529.84;4883757;29;45421;-72
2023/03/02 04:16:58;;;;;;;;;51.75;42.25;;;;;5.04;47.75;101540.44;4884185;29;45294;-72
2023/03/02 04:19:26;;;;;;;;;46.00;42.00;;;;;5.28;48.08;101573.13;4867870;29;45361;-72
2023/03/02 04:22:04;;;;;;;;;;;;;;;;;;;;;
2023/03/02 04:24:30;;;;;;;;;45.25;34.75;;;;;4.98;47.35;101516.63;4883375;29;74428;-72
2023/03/02 04:27:03;;;;;;;;;53.25;41.75;;;;;5.16;47.15;101556.38;4884387;29;45394;-72
2023/03/02 04:29:31;;;;;;;;;48.75;39.75;;;;;5.24;47.73;101559.03;4867302;29;45481;-72
2023/03/02 04:31:56;;;;;;;;;44.75;40.00;;;;;5.04;47.44;101519.25;4867362;29;45398;-72
2023/03/02 04:34:24;;;;;;;;;51.50;42.00;;;;;4.95;47.63;101514.84;4881591;29;46535;-72
2023/03/02 04:36:52;;;;;;;;;52.00;44.00;;;;;5.19;47.53;101553.75;4884354;29;45273;-72
2023/03/02 04:39:21;;;;;;;;;49.25;41.75;;;;;5.04;47.10;101548.38;4884408;29;45389;-72
2023/03/02 04:41:50;;;;;;;;;58.25;44.50;;;;;5.14;47.54;101576.63;4879063;29;45565;-72
2023/03/02 04:44:23;;;;;;;;;45.00;38.25;;;;;4.98;47.84;101564.25;4864421;29;45693;-72
2023/03/02 04:46:49;;;;;;;;;46.75;41.75;;;;;4.83;47.78;101536.84;4865370;29;45793;-72
2023/03/02 04:49:19;;;;;;;;;51.25;41.00;;;;;4.78;47.88;101529.78;4864234;29;45401;-72
2023/03/02 04:51:48;;;;;;;;;49.25;42.25;;;;;4.91;48.21;101563.34;4872346;29;45492;-72
2023/03/02 04:54:25;;;;;;;;;54.25;43.00;;;;;4.87;47.73;101564.19;4864228;29;45365;-72
2023/03/02 04:56:53;;;;;;;;;53.50;43.00;;;;;4.87;47.69;101566.84;4865351;29;45268;-72
2023/03/02 04:59:23;;;;;;;;;58.25;44.75;;;;;4.87;48.09;101555.38;4852195;29;45491;-72
2023/03/02 05:01:49;;;;;;;;;55.25;46.00;;;;;4.76;47.69;101545.63;4865215;29;45341;-72
2023/03/02 05:04:19;;;;;;;;;51.75;42.50;;;;;4.77;48.10;101554.44;4879017;29;46085;-72
2023/03/02 05:06:45;;;;;;;;;50.50;43.00;;;;;4.78;48.01;101550.94;4865057;29;46317;-72
2023/03/02 05:09:11;;;;;;;;;49.25;43.75;;;;;4.69;47.54;101521.78;4865272;29;45404;-72
2023/03/02 05:11:39;;;;;;;;;55.50;45.75;;;;;4.64;47.82;101514.72;4865091;29;45256;-72
2023/03/02 05:14:14;;;;;;;;;52.50;43.00;;;;;4.81;47.90;101528.03;4862979;29;47665;-72
2023/03/02 05:16:42;;;;;;;;;59.75;47.00;;;;;4.80;47.28;101526.25;4864037;29;45931;-72
2023/03/02 05:19:12;;;;;;;;;47.00;43.25;;;;;4.83;48.53;101528.03;4865213;29;45487;-72
2023/03/02 05:21:38;;;;;;;;;47.25;42.00;;;;;4.87;47.91;101539.50;4870594;29;45433;-72
2023/03/02 05:24:14;;;;;;;;;;;;;;;;;;;;;
2023/03/02 05:26:40;;;;;;;;;47.50;41.50;;;;;4.74;48.00;101520.03;4863614;29;72710;-72
2023/03/02 05:29:08;;;;;;;;;44.75;40.50;;;;;5.10;47.59;101588.09;4860555;29;46212;-72
2023/03/02 05:31:46;;;;;;;;;57.00;45.75;;;;;5.09;48.47;101586.31;4864448;29;45412;-72
2023/03/02 05:34:18;;;;;;;;;59.75;46.25;;;;;4.67;48.05;101520.91;4875692;29;48088;-72
2023/03/02 05:36:46;;;;;;;;;51.75;45.25;;;;;4.78;48.40;101538.59;4864738;29;45531;-72
2023/03/02 05:39:12;;;;;;;;;56.50;43.25;;;;;5.06;48.52;101582.78;4864824;29;45322;-72
2023/03/02 05:41:43;;;;;;;;;51.75;42.25;;;;;4.73;48.63;101524.47;4867723;29;45618;-72
2023/03/02 05:44:17;;;;;;;;;61.25;46.50;;;;;4.97;48.20;101581.88;4882319;29;47642;-72
2023/03/02 05:46:52;;;;;;;;;50.75;42.75;;;;;4.81;47.45;101558.84;4866280;29;46143;-72
2023/03/02 05:49:20;;;;;;;;;52.00;44.00;;;;;4.85;47.64;101579.19;4882569;29;45673;-72
2023/03/02 05:51:48;;;;;;;;;52.50;41.50;;;;;4.58;48.22;101541.13;4875184;29;45472;-72
2023/03/02 05:54:24;;;;;;;;;;;;;;;;;;;;;
2023/03/02 05:56:50;;;;;;;;;55.50;44.75;;;;;4.69;48.69;101579.97;4882218;29;73314;-72
2023/03/02 05:59:15;;;;;;;;;55.75;42.25;;;;;4.76;48.21;101597.63;4871150;29;45233;-72
2023/03/02 06:01:41;;;;;;;;;56.75;47.00;;;;;4.68;48.13;101589.69;4883050;29;45571;-72
2023/03/02 06:04:07;;;;;;;;;35.50;28.00;;;;;4.40;48.07;101555.13;4882707;29;45404;-72
2023/03/02 06:06:43;;;;;;;;;50.00;44.50;;;;;4.38;48.35;101569.22;4886190;29;45427;-72
2023/03/02 06:09:11;;;;;;;;;54.00;40.75;;;;;4.14;48.00;101532.94;4869535;29;45673;-72
2023/03/02 06:11:41;;;;;;;;;49.25;43.50;;;;;4.41;48.47;101590.38;4869573;29;45529;-72
2023/03/02 06:14:07;;;;;;;;;59.25;46.75;;;;;4.22;48.58;101569.09;4868681;29;47118;-72
2023/03/02 06:16:35;;;;;;;;;53.25;45.75;;;;;4.11;48.74;101561.97;4886202;29;45471;-72
2023/03/02 06:19:01;;;;;;;;;56.50;43.50;;;;;4.24;49.02;101572.66;4869689;29;45384;-72
2023/03/02 06:21:27;;;;;;;;;57.75;43.50;;;;;4.44;49.26;101611.53;4863192;29;45354;-72
2023/03/02 06:23:55;;;;;;;;;55.50;42.75;;;;;4.14;49.52;101569.94;4886175;29;45453;-72
2023/03/02 06:26:20;;;;;;;;;58.50;45.00;;;;;4.40;49.25;101607.13;4869154;29;46006;-72
2023/03/02 06:28:46;;;;;;;;;62.00;50.50;;;;;4.47;48.90;101613.34;4886273;29;45455;-72
2023/03/02 06:31:19;;;;;;;;;58.75;46.00;;;;;4.25;49.13;101590.28;4885950;29;45479;-72
2023/03/02 06:33:55;;;;;;;;;;;;;;;;;;;;;
2023/03/02 06:36:23;;;;;;;;;60.00;46.25;;;;;4.11;48.76;101554.94;4886093;29;72658;-74
2023/03/02 06:45:45;;;;;;;;;55.25;45.50;;;;;4.07;49.42;101582.22;4684048;29;45520;-75
2023/03/02 06:48:11;;;;;;;;;57.50;44.25;;;;;4.07;49.49;101584.84;4850656;29;45411;-75
2023/03/02 06:50:37;;;;;;;;;52.00;43.50;;;;;4.06;49.96;101578.69;4873031;29;46778;-75
2023/03/02 06:53:02;;;;;;;;;60.75;44.75;;;;;4.35;49.17;101630.00;4864818;29;45709;-75
2023/03/02 06:55:28;;;;;;;;;48.75;45.25;;;;;4.33;49.61;101630.00;4850134;29;46667;-75
2023/03/02 06:57:53;;;;;;;;;56.75;46.25;;;;;4.30;49.39;101631.72;4866364;29;45445;-75
2023/03/02 07:00:24;;;;;;;;;51.75;43.00;;;;;3.99;49.97;101595.38;4870511;29;45567;-76
2023/03/02 07:02:50;;;;;;;;;56.00;46.00;;;;;3.85;50.18;101568.81;4866141;29;45488;-75
2023/03/02 07:05:16;;;;;;;;;53.00;43.50;;;;;3.99;48.96;101603.31;4863610;29;46018;-74
2023/03/02 07:07:42;;;;;;;;;54.25;40.50;;;;;3.96;49.88;101603.28;4864941;29;45476;-74
2023/03/02 07:10:09;;;;;;;;;53.75;44.75;;;;;3.87;50.25;101593.47;4868747;29;45569;-74
2023/03/02 07:12:35;;;;;;;;;55.00;44.00;;;;;3.86;49.87;101596.13;4865297;29;45508;-75
2023/03/02 07:15:00;;;;;;;;;53.25;46.25;;;;;3.98;49.90;101614.72;4863943;29;46527;-74
2023/03/02 07:17:25;;;;;;;;;59.00;47.75;;;;;3.97;50.01;101612.06;4865106;29;45445;-74
2023/03/02 07:19:51;;;;;;;;;54.75;44.25;;;;;4.08;50.23;101613.94;4864540;29;45454;-76
2023/03/02 07:22:16;;;;;;;;;60.25;44.25;;;;;4.22;50.23;101626.38;4851547;29;45623;-76
2023/03/02 07:24:41;;;;;;;;;53.00;44.25;;;;;4.08;49.55;101610.41;4862759;29;45367;-75
2023/03/02 07:27:07;;;;;;;;;56.75;42.25;;;;;4.24;50.00;101643.13;4849157;29;45302;-75
2023/03/02 07:29:32;;;;;;;;;63.75;48.00;;;;;3.82;49.36;101558.22;4862235;29;45472;-75
2023/03/02 07:32:00;;;;;;;;;60.75;50.50;;;;;4.15;49.98;101608.69;4871180;29;45640;-75
2023/03/02 07:34:26;;;;;;;;;59.75;48.50;;;;;3.97;49.63;101580.38;4861870;29;46594;-74
2023/03/02 07:36:52;;;;;;;;;58.75;45.00;;;;;3.79;49.92;101568.78;4860362;29;46334;-73
2023/03/02 07:39:18;;;;;;;;;54.50;44.50;;;;;3.93;50.28;101582.09;4863156;29;45459;-73
2023/03/02 07:41:43;;;;;;;;;38.50;33.00;;;;;3.92;49.64;101582.09;4860347;29;45766;-73
2023/03/02 07:44:09;;;;;;;;;58.25;47.00;;;;;3.74;50.00;101554.63;4864911;29;45471;-73
2023/03/02 07:46:57;;;;;;;;;;;;;;;;;;;;;
2023/03/02 07:49:23;;;;;;;;;59.50;45.25;;;;;3.71;50.43;101565.19;4873210;29;67137;-74
2023/03/02 07:51:58;;;;;;;;;50.75;43.00;;;;;4.14;49.49;101638.63;4876217;29;45614;-73
2023/03/02 07:54:31;;;;;;;;;54.50;45.50;;;;;3.68;50.39;101571.31;4855614;29;46542;-73
2023/03/02 07:56:59;;;;;;;;;60.00;49.25;;;;;3.62;50.20;101536.94;4878231;29;45642;-73
2023/03/02 07:59:28;;;;;;;;;63.00;46.50;;;;;3.68;50.52;101538.75;4874254;29;45421;-73
2023/03/02 08:01:56;;;;;;;;;45.50;42.50;;;;;3.78;50.19;101559.09;4852457;29;45549;-73
2023/03/02 08:04:32;;;;;;;;;;;;;;;;;;;;;
2023/03/02 08:07:23;;;;;;;;;;;;;;;;;;;;;
2023/03/02 08:09:49;;;;;;;;;55.25;44.75;;;;;3.76;50.50;101557.28;4873779;29;68816;-74
2023/03/02 08:12:17;;;;;;;;;43.50;36.75;;;;;3.90;50.71;101593.50;4878951;29;45468;-74
2023/03/02 08:14:45;;;;;;;;;58.50;43.25;;;;;3.92;50.34;101598.81;4873073;29;47434;-74
2023/03/02 08:17:13;;;;;;;;;63.00;49.75;;;;;4.01;50.27;101612.13;4878925;29;45382;-73
2023/03/02 08:19:40;;;;;;;;;56.50;47.25;;;;;3.89;49.89;101599.69;4880821;29;45769;-74
2023/03/02 08:22:06;;;;;;;;;60.75;47.75;;;;;4.15;50.50;101638.66;4863030;29;45555;-74
2023/03/02 08:24:31;;;;;;;;;61.25;48.25;;;;;4.01;50.05;101614.75;4857369;29;47388;-74
2023/03/02 08:27:10;;;;;;;;;0.00;0.00;;;;;3.83;49.53;101570.56;4855980;29;45530;-74
2023/03/02 08:29:36;;;;;;;;;61.25;48.00;;;;;4.04;50.28;101612.16;4872172;29;45610;-73
2023/03/02 08:32:04;;;;;;;;;58.75;48.25;;;;;4.03;49.97;101614.78;4881662;29;45867;-73
2023/03/02 08:34:29;;;;;;;;;50.75;43.75;;;;;3.74;50.29;101543.19;4873592;29;46984;-71
2023/03/02 08:37:15;;;;;;;;;62.00;51.50;;;;;4.01;50.55;101601.56;4874849;29;45475;-70
2023/03/02 08:39:40;;;;;;;;;55.50;47.50;;;;;4.01;50.39;101584.78;4872882;29;45496;-71
2023/03/02 08:42:09;;;;;;;;;58.25;46.25;;;;;4.05;50.45;101578.69;4875943;29;45637;-72
2023/03/02 08:44:37;;;;;;;;;60.25;47.25;;;;;4.18;50.21;101592.88;4873571;29;46210;-72
2023/03/02 08:47:05;;;;;;;;;62.50;50.25;;;;;4.36;50.10;101613.25;4874932;29;46010;-72
2023/03/02 08:49:30;;;;;;;;;67.00;51.25;;;;;4.41;50.31;101625.66;4851033;29;45466;-72
2023/03/02 08:51:57;;;;;;;;;57.75;48.50;;;;;4.19;49.99;101587.59;4873296;29;46153;-72
2023/03/02 08:54:23;;;;;;;;;47.50;34.25;;;;;4.31;50.45;101613.25;4880884;29;45415;-72
2023/03/02 08:56:57;;;;;;;;;54.00;42.75;;;;;4.08;50.96;101570.78;4879061;29;45373;-72
2023/03/02 08:59:23;;;;;;;;;62.50;47.00;;;;;4.21;50.17;101574.38;4876008;29;45672;-72
2023/03/02 09:01:50;;;;;;;;;60.25;48.25;;;;;4.33;50.32;101590.34;4856145;29;45495;-72
2023/03/02 09:04:16;;;;;;;;;48.50;39.75;;;;;4.41;50.53;101588.63;4860312;29;47943;-72
2023/03/02 09:06:44;;;;;;;;;63.00;52.75;;;;;4.28;49.85;101563.00;4863201;29;45393;-72
2023/03/02 09:09:11;;;;;;;;;61.25;47.75;;;;;4.50;50.31;101584.28;4879071;29;45399;-72
2023/03/02 09:11:41;;;;;;;;;60.25;46.75;;;;;4.34;49.79;101557.72;4875669;29;45695;-72
2023/03/02 09:14:06;;;;;;;;;65.50;48.25;;;;;4.45;50.31;101555.16;4854945;29;46968;-72
2023/03/02 09:16:34;;;;;;;;;58.50;47.75;;;;;4.67;50.40;101593.19;4878828;29;45535;-72
2023/03/02 09:19:00;;;;;;;;;54.25;46.50;;;;;4.66;50.12;101569.38;4881109;29;45397;-72
2023/03/02 09:21:25;;;;;;;;;64.00;50.50;;;;;4.64;49.83;101556.13;4870528;29;45513;-72
2023/03/02 09:23:58;;;;;;;;;72.25;54.50;;;;;4.80;49.74;101567.69;4876904;29;45600;-72
2023/03/02 09:26:29;;;;;;;;;62.50;51.25;;;;;4.93;49.99;101589.81;4865650;29;45978;-72
2023/03/02 09:28:59;;;;;;;;;59.75;47.00;;;;;5.15;49.45;101620.75;4860429;29;45487;-72
2023/03/02 09:32:14;;;;;;;;;56.75;45.50;;;;;5.08;49.98;101603.09;4879000;29;45677;-71
2023/03/02 09:34:40;;;;;;;;;56.75;47.25;;;;;5.17;49.68;101594.31;4834312;29;45725;-71
2023/03/02 09:37:05;;;;;;;;;66.25;52.25;;;;;5.08;49.77;101562.50;4871629;29;45711;-70
2023/03/02 09:39:31;;;;;;;;;62.75;52.00;;;;;5.17;49.51;101568.69;4873260;29;45487;-70
2023/03/02 09:42:15;;;;;;;;;56.50;49.50;;;;;5.47;49.46;101601.44;4881457;29;45381;-70
2023/03/02 09:44:52;;;;;;;;;59.50;48.25;;;;;5.52;49.14;101590.88;4875060;29;46743;-70
2023/03/02 09:47:31;;;;;;;;;66.50;53.50;;;;;5.17;49.87;101552.81;4855992;29;45375;-70
2023/03/02 09:50:08;;;;;;;;;57.25;45.75;;;;;5.60;49.09;101612.97;4880486;29;45436;-71
2023/03/02 09:52:57;;;;;;;;;59.75;48.50;;;;;5.17;49.07;101542.25;4855390;29;45757;-74
2023/03/02 09:55:27;;;;;;;;;64.50;50.25;;;;;5.31;48.59;101559.91;4871709;29;46144;-73
2023/03/02 09:57:54;;;;;;;;;58.50;46.50;;;;;5.37;48.88;101565.25;4862957;29;45438;-72
2023/03/02 10:00:29;;;;;;;;;60.75;49.25;;;;;5.45;49.25;101579.38;4862790;29;45490;-73
2023/03/02 10:03:08;;;;;;;;;61.25;49.00;;;;;5.23;48.95;101521.94;4877797;29;45482;-73
2023/03/02 10:05:45;;;;;;;;;61.25;51.25;;;;;5.60;49.21;101575.88;4855134;29;47828;-73
2023/03/02 10:08:20;;;;;;;;;61.50;48.75;;;;;5.31;48.89;101528.16;4861737;29;46105;-73
2023/03/02 10:11:22;;;;;;;;;65.25;51.25;;;;;5.85;48.92;101618.31;4862382;29;45718;-73
2023/03/02 10:14:01;;;;;;;;;61.75;51.50;;;;;5.54;48.82;101568.78;4842506;29;45531;-73
2023/03/02 10:16:45;;;;;;;;;66.00;52.25;;;;;5.87;48.68;101619.19;4882043;29;45523;-73
2023/03/02 10:19:40;;;;;;;;;64.25;52.75;;;;;5.31;48.89;101520.22;4871893;29;45811;-73
2023/03/02 10:22:33;;;;;;;;;60.50;49.50;;;;;5.72;49.13;101565.28;4872836;29;45381;-73
2023/03/02 10:25:17;;;;;;;;;59.75;48.00;;;;;6.07;49.17;101619.22;4865097;29;45541;-73
2023/03/02 10:27:49;;;;;;;;;59.00;48.00;;;;;5.92;48.77;101575.03;4871046;29;45454;-73
2023/03/02 10:30:35;;;;;;;;;59.00;49.50;;;;;6.19;47.75;101602.44;4881748;29;45937;-73
2023/03/02 10:33:13;;;;;;;;;57.25;48.25;;;;;6.11;48.41;101591.81;4881200;29;45472;-73
2023/03/02 10:35:46;;;;;;;;;64.50;51.25;;;;;5.97;48.43;101572.41;4872140;29;45322;-73
2023/03/02 10:38:19;;;;;;;;;60.50;50.00;;;;;6.26;47.79;101601.53;4876930;29;46228;-73
2023/03/02 10:41:00;;;;;;;;;68.00;54.00;;;;;6.28;47.91;101602.41;4881718;29;45963;-73
2023/03/02 10:43:50;;;;;;;;;63.75;52.00;;;;;6.17;47.86;101575.94;4869947;29;45386;-73
2023/03/02 10:46:15;;;;;;;;;61.25;50.00;;;;;5.98;48.37;101527.34;4874927;29;45523;-73
2023/03/02 10:48:48;;;;;;;;;62.50;48.50;;;;;6.45;47.48;101597.13;4882010;29;45547;-73
2023/03/02 10:51:27;;;;;;;;;67.50;53.25;;;;;6.15;48.29;101547.63;4880162;29;45408;-73
2023/03/02 10:54:13;;;;;;;;;63.00;48.50;;;;;5.88;48.02;101499.94;4875624;29;45381;-73
2023/03/02 10:56:54;;;;;;;;;58.00;49.25;;;;;6.55;47.87;101596.22;4883000;29;45314;-73
2023/03/02 10:59:52;;;;;;;;;;;;;;;;;;;;;
2023/03/02 11:02:22;;;;;;;;;58.75;47.50;;;;;6.62;47.30;101587.34;4879165;29;71539;-73
2023/03/02 11:05:20;;;;;;;;;31.25;27.50;;;;;6.24;47.60;101521.13;4874740;29;45460;-73
2023/03/02 11:07:56;;;;;;;;;57.50;45.25;;;;;6.40;47.26;101546.72;4882998;29;45527;-73
2023/03/02 11:10:28;;;;;;;;;67.00;50.00;;;;;6.68;47.08;101597.03;4861029;29;47818;-73
2023/03/02 11:12:54;;;;;;;;;56.75;45.25;;;;;6.33;47.35;101530.81;4863922;29;45474;-73
2023/03/02 11:15:26;;;;;;;;;58.00;46.50;;;;;6.60;47.61;101548.44;4884375;29;45421;-73
2023/03/02 11:18:43;;;;;;;;;61.50;49.00;;;;;6.85;47.69;101574.00;4856149;29;45499;-73
2023/03/02 11:21:26;;;;;;;;;59.75;48.00;;;;;6.79;47.35;101554.56;4798262;29;46514;-73
2023/03/02 11:24:04;;;;;;;;;;;;;;;;;;;;;
2023/03/02 11:26:36;;;;;;;;;62.75;48.75;;;;;6.58;46.72;101507.75;4874390;29;68967;-69
2023/03/02 11:29:43;;;;;;;;;;;;;;;;;;;;;
2023/03/02 11:32:27;;;;;;;;;57.00;43.75;;;;;6.93;46.88;101533.28;4879881;29;74903;-71
2023/03/02 11:35:05;;;;;;;;;58.75;46.50;;;;;6.92;47.04;101523.56;4876126;29;46069;-71
2023/03/02 11:37:44;;;;;;;;;60.25;48.50;;;;;7.29;46.86;101564.06;4871230;23;45405;-80
2023/03/02 11:40:30;;;;;;;;;64.25;51.50;;;;;7.31;46.98;101556.09;4864061;29;45645;-80
2023/03/02 11:42:58;;;;;;;;;57.50;48.00;;;;;7.36;46.62;101556.94;4872502;29;45468;-79
2023/03/02 11:45:49;;;;;;;;;60.25;46.25;;;;;7.35;46.04;101542.78;4879309;29;46058;-80
2023/03/02 11:48:27;;;;;;;;;57.00;48.50;;;;;7.51;46.04;101562.16;4877183;29;45427;-79
2023/03/02 11:50:59;;;;;;;;;59.25;46.00;;;;;7.57;45.73;101553.28;4873709;29;45817;-80
2023/03/02 11:53:42;;;;;;;;;61.00;49.00;;;;;7.64;46.42;101559.44;4875002;29;46408;-79
2023/03/02 11:56:08;;;;;;;;;51.50;44.25;;;;;7.69;46.25;101547.88;4873358;29;45508;-80
2023/03/02 11:58:35;;;;;;;;;61.75;49.75;;;;;7.73;46.05;101541.63;4869397;29;45592;-80
2023/03/02 12:01:02;;;;;;;;;55.25;43.75;;;;;7.71;45.72;101524.81;4866958;29;45391;-80
2023/03/02 12:03:30;;;;;;;;;52.00;45.00;;;;;7.79;45.81;101532.72;4848330;29;47198;-80
2023/03/02 12:06:06;;;;;;;;;58.25;45.00;;;;;7.94;45.76;101545.03;4855139;29;45571;-80
2023/03/02 12:08:34;;;;;;;;;55.25;44.25;;;;;7.97;45.27;101547.66;4866587;29;45656;-80
2023/03/02 12:11:07;;;;;;;;;53.00;43.50;;;;;8.00;45.46;101549.38;4883724;29;45448;-80
2023/03/02 12:13:34;;;;;;;;;56.50;47.75;;;;;8.06;45.38;101544.03;4854879;29;48330;-80
2023/03/02 12:16:00;;;;;;;;;55.75;45.00;;;;;7.77;44.93;101499.97;4856310;29;45893;-80
2023/03/02 12:18:42;;;;;;;;;60.00;45.75;;;;;8.02;45.11;101527.22;4871454;29;45267;-80
2023/03/02 12:21:19;;;;;;;;;60.25;48.00;;;;;8.14;45.38;101535.06;4868833;29;45758;-79
2023/03/02 12:23:48;;;;;;;;;53.00;45.25;;;;;8.22;45.05;101536.75;4879734;29;45370;-80
2023/03/02 12:26:19;;;;;;;;;40.75;34.75;;;;;8.25;45.12;101537.66;4875406;29;45725;-80